sensor_id;sensor_type;location;lat;lon;timestamp;temperature;humidity
65231;DHT22;51813;40.666;16.602;2023-06-26T00:00:13;23.80;63.50
65231;DHT22;51813;40.666;16.602;2023-06-26T00:02:39;23.80;63.50
65231;DHT22;51813;40.666;16.602;2023-06-26T00:05:05;23.80;63.40
65231;DHT22;51813;40.666;16.602;2023-06-26T00:07:32;23.80;63.40
65231;DHT22;51813;40.666;16.602;2023-06-26T00:10:01;23.80;62.80
65231;DHT22;51813;40.666;16.602;2023-06-26T00:12:28;23.80;63.30
65231;DHT22;51813;40.666;16.602;2023-06-26T00:14:54;23.80;63.00
65231;DHT22;51813;40.666;16.602;2023-06-26T00:17:20;23.80;63.40
65231;DHT22;51813;40.666;16.602;2023-06-26T00:19:47;23.80;63.20
65231;DHT22;51813;40.666;16.602;2023-06-26T00:22:13;23.70;63.20
65231;DHT22;51813;40.666;16.602;2023-06-26T00:24:39;23.70;63.50
65231;DHT22;51813;40.666;16.602;2023-06-26T00:27:05;23.70;63.80
65231;DHT22;51813;40.666;16.602;2023-06-26T00:29:30;23.70;63.70
65231;DHT22;51813;40.666;16.602;2023-06-26T00:31:56;23.70;63.90
65231;DHT22;51813;40.666;16.602;2023-06-26T00:34:22;23.70;63.60
65231;DHT22;51813;40.666;16.602;2023-06-26T00:36:48;23.70;63.40
65231;DHT22;51813;40.666;16.602;2023-06-26T00:39:13;23.70;63.60
65231;DHT22;51813;40.666;16.602;2023-06-26T00:41:39;23.70;63.40
65231;DHT22;51813;40.666;16.602;2023-06-26T00:44:05;23.70;63.40
65231;DHT22;51813;40.666;16.602;2023-06-26T00:46:32;23.60;63.50
65231;DHT22;51813;40.666;16.602;2023-06-26T00:48:59;23.60;63.50
65231;DHT22;51813;40.666;16.602;2023-06-26T00:51:29;23.60;63.70
65231;DHT22;51813;40.666;16.602;2023-06-26T00:53:55;23.60;63.30
65231;DHT22;51813;40.666;16.602;2023-06-26T00:56:22;23.60;64.70
65231;DHT22;51813;40.666;16.602;2023-06-26T00:58:48;23.60;63.90
65231;DHT22;51813;40.666;16.602;2023-06-26T01:01:14;23.60;64.10
65231;DHT22;51813;40.666;16.602;2023-06-26T01:03:44;23.70;64.10
65231;DHT22;51813;40.666;16.602;2023-06-26T01:06:12;23.60;62.60
65231;DHT22;51813;40.666;16.602;2023-06-26T01:08:39;23.60;63.30
65231;DHT22;51813;40.666;16.602;2023-06-26T01:11:05;23.60;62.90
65231;DHT22;51813;40.666;16.602;2023-06-26T01:13:31;23.60;63.00
65231;DHT22;51813;40.666;16.602;2023-06-26T01:16:00;23.50;63.20
65231;DHT22;51813;40.666;16.602;2023-06-26T01:18:27;23.50;63.80
65231;DHT22;51813;40.666;16.602;2023-06-26T01:20:53;23.40;63.10
65231;DHT22;51813;40.666;16.602;2023-06-26T01:23:22;23.40;63.60
65231;DHT22;51813;40.666;16.602;2023-06-26T01:28:39;23.50;63.30
65231;DHT22;51813;40.666;16.602;2023-06-26T01:31:07;23.50;63.00
65231;DHT22;51813;40.666;16.602;2023-06-26T01:33:34;23.50;63.80
65231;DHT22;51813;40.666;16.602;2023-06-26T01:36:00;23.50;63.30
65231;DHT22;51813;40.666;16.602;2023-06-26T01:38:26;23.50;62.80
65231;DHT22;51813;40.666;16.602;2023-06-26T01:40:53;23.50;62.70
65231;DHT22;51813;40.666;16.602;2023-06-26T01:43:38;23.50;63.00
65231;DHT22;51813;40.666;16.602;2023-06-26T01:46:33;23.50;62.90
65231;DHT22;51813;40.666;16.602;2023-06-26T01:49:15;23.50;63.70
65231;DHT22;51813;40.666;16.602;2023-06-26T01:54:21;23.50;63.30
65231;DHT22;51813;40.666;16.602;2023-06-26T01:56:52;23.40;63.30
65231;DHT22;51813;40.666;16.602;2023-06-26T01:59:19;23.50;63.30
65231;DHT22;51813;40.666;16.602;2023-06-26T02:01:47;23.40;64.00
65231;DHT22;51813;40.666;16.602;2023-06-26T02:04:13;23.50;63.30
65231;DHT22;51813;40.666;16.602;2023-06-26T02:06:38;23.60;62.90
65231;DHT22;51813;40.666;16.602;2023-06-26T02:09:04;23.60;63.30
65231;DHT22;51813;40.666;16.602;2023-06-26T02:11:30;23.50;62.70
65231;DHT22;51813;40.666;16.602;2023-06-26T02:13:55;23.50;62.80
65231;DHT22;51813;40.666;16.602;2023-06-26T02:16:21;23.40;63.00
65231;DHT22;51813;40.666;16.602;2023-06-26T02:18:47;23.40;63.00
65231;DHT22;51813;40.666;16.602;2023-06-26T02:21:13;23.40;63.70
65231;DHT22;51813;40.666;16.602;2023-06-26T02:23:39;23.40;63.20
65231;DHT22;51813;40.666;16.602;2023-06-26T02:26:04;23.40;63.50
65231;DHT22;51813;40.666;16.602;2023-06-26T02:28:30;23.40;64.10
65231;DHT22;51813;40.666;16.602;2023-06-26T02:30:56;23.50;63.30
65231;DHT22;51813;40.666;16.602;2023-06-26T02:33:22;23.50;63.70
65231;DHT22;51813;40.666;16.602;2023-06-26T02:35:48;23.60;63.20
65231;DHT22;51813;40.666;16.602;2023-06-26T02:38:16;23.50;63.30
65231;DHT22;51813;40.666;16.602;2023-06-26T02:40:42;23.50;63.30
65231;DHT22;51813;40.666;16.602;2023-06-26T02:43:07;23.50;63.70
65231;DHT22;51813;40.666;16.602;2023-06-26T02:45:33;23.50;63.70
65231;DHT22;51813;40.666;16.602;2023-06-26T02:47:59;23.60;63.30
65231;DHT22;51813;40.666;16.602;2023-06-26T02:50:24;23.60;63.10
65231;DHT22;51813;40.666;16.602;2023-06-26T02:52:50;23.60;63.30
65231;DHT22;51813;40.666;16.602;2023-06-26T02:55:18;23.60;63.40
65231;DHT22;51813;40.666;16.602;2023-06-26T02:57:45;23.50;63.70
65231;DHT22;51813;40.666;16.602;2023-06-26T03:00:11;23.60;64.20
65231;DHT22;51813;40.666;16.602;2023-06-26T03:02:37;23.60;63.50
65231;DHT22;51813;40.666;16.602;2023-06-26T03:05:03;23.60;63.30
65231;DHT22;51813;40.666;16.602;2023-06-26T03:07:29;23.70;63.70
65231;DHT22;51813;40.666;16.602;2023-06-26T03:09:55;23.70;63.40
65231;DHT22;51813;40.666;16.602;2023-06-26T03:12:21;23.70;63.10
65231;DHT22;51813;40.666;16.602;2023-06-26T03:14:47;23.70;63.70
65231;DHT22;51813;40.666;16.602;2023-06-26T03:17:12;23.70;63.20
65231;DHT22;51813;40.666;16.602;2023-06-26T03:19:38;23.70;62.40
65231;DHT22;51813;40.666;16.602;2023-06-26T03:22:04;23.50;63.70
65231;DHT22;51813;40.666;16.602;2023-06-26T03:24:30;23.60;63.70
65231;DHT22;51813;40.666;16.602;2023-06-26T03:26:55;23.60;63.30
65231;DHT22;51813;40.666;16.602;2023-06-26T03:29:22;23.50;63.30
65231;DHT22;51813;40.666;16.602;2023-06-26T03:31:47;23.60;63.70
65231;DHT22;51813;40.666;16.602;2023-06-26T03:34:13;23.60;63.10
65231;DHT22;51813;40.666;16.602;2023-06-26T03:36:39;23.60;63.50
65231;DHT22;51813;40.666;16.602;2023-06-26T03:39:04;23.60;63.30
65231;DHT22;51813;40.666;16.602;2023-06-26T03:41:30;23.60;63.10
65231;DHT22;51813;40.666;16.602;2023-06-26T03:43:56;23.60;63.30
65231;DHT22;51813;40.666;16.602;2023-06-26T03:46:22;23.60;62.30
65231;DHT22;51813;40.666;16.602;2023-06-26T03:48:48;23.60;63.20
65231;DHT22;51813;40.666;16.602;2023-06-26T03:51:14;23.60;62.80
65231;DHT22;51813;40.666;16.602;2023-06-26T03:53:40;23.60;62.20
65231;DHT22;51813;40.666;16.602;2023-06-26T03:56:06;23.60;62.30
65231;DHT22;51813;40.666;16.602;2023-06-26T03:58:32;23.50;62.60
65231;DHT22;51813;40.666;16.602;2023-06-26T04:00:57;23.40;63.20
65231;DHT22;51813;40.666;16.602;2023-06-26T04:03:24;23.50;63.10
65231;DHT22;51813;40.666;16.602;2023-06-26T04:05:49;23.50;62.30
65231;DHT22;51813;40.666;16.602;2023-06-26T04:08:15;23.50;62.60
65231;DHT22;51813;40.666;16.602;2023-06-26T04:10:41;23.40;62.70
65231;DHT22;51813;40.666;16.602;2023-06-26T04:13:07;23.50;63.10
65231;DHT22;51813;40.666;16.602;2023-06-26T04:15:32;23.60;62.70
65231;DHT22;51813;40.666;16.602;2023-06-26T04:17:58;23.70;62.90
65231;DHT22;51813;40.666;16.602;2023-06-26T04:20:24;23.70;62.80
65231;DHT22;51813;40.666;16.602;2023-06-26T04:22:49;23.60;62.40
65231;DHT22;51813;40.666;16.602;2023-06-26T04:25:15;23.60;62.80
65231;DHT22;51813;40.666;16.602;2023-06-26T04:27:41;23.60;62.40
65231;DHT22;51813;40.666;16.602;2023-06-26T04:30:07;23.50;64.00
65231;DHT22;51813;40.666;16.602;2023-06-26T04:32:33;23.60;63.30
65231;DHT22;51813;40.666;16.602;2023-06-26T04:34:59;23.60;62.60
65231;DHT22;51813;40.666;16.602;2023-06-26T04:37:25;23.60;63.60
65231;DHT22;51813;40.666;16.602;2023-06-26T04:39:51;23.60;62.80
65231;DHT22;51813;40.666;16.602;2023-06-26T04:42:17;23.60;63.10
65231;DHT22;51813;40.666;16.602;2023-06-26T04:44:44;23.50;63.30
65231;DHT22;51813;40.666;16.602;2023-06-26T04:47:10;23.50;63.10
65231;DHT22;51813;40.666;16.602;2023-06-26T04:49:35;23.50;63.10
65231;DHT22;51813;40.666;16.602;2023-06-26T04:52:01;23.40;63.70
65231;DHT22;51813;40.666;16.602;2023-06-26T04:54:28;23.50;63.30
65231;DHT22;51813;40.666;16.602;2023-06-26T04:56:54;23.50;63.90
65231;DHT22;51813;40.666;16.602;2023-06-26T04:59:20;23.50;63.90
65231;DHT22;51813;40.666;16.602;2023-06-26T05:01:45;23.50;63.30
65231;DHT22;51813;40.666;16.602;2023-06-26T05:04:14;23.50;63.40
65231;DHT22;51813;40.666;16.602;2023-06-26T05:06:40;23.50;63.90
65231;DHT22;51813;40.666;16.602;2023-06-26T05:09:06;23.50;62.90
65231;DHT22;51813;40.666;16.602;2023-06-26T05:11:32;23.50;63.60
65231;DHT22;51813;40.666;16.602;2023-06-26T05:13:58;23.60;62.90
65231;DHT22;51813;40.666;16.602;2023-06-26T05:16:23;23.60;63.50
65231;DHT22;51813;40.666;16.602;2023-06-26T05:18:49;23.50;63.40
65231;DHT22;51813;40.666;16.602;2023-06-26T05:21:16;23.50;63.70
65231;DHT22;51813;40.666;16.602;2023-06-26T05:23:42;23.50;63.40
65231;DHT22;51813;40.666;16.602;2023-06-26T05:26:10;23.40;63.80
65231;DHT22;51813;40.666;16.602;2023-06-26T05:28:37;23.40;63.70
65231;DHT22;51813;40.666;16.602;2023-06-26T05:31:03;23.40;64.10
65231;DHT22;51813;40.666;16.602;2023-06-26T05:33:31;23.40;63.90
65231;DHT22;51813;40.666;16.602;2023-06-26T05:36:00;23.40;64.00
65231;DHT22;51813;40.666;16.602;2023-06-26T05:38:29;23.40;63.80
65231;DHT22;51813;40.666;16.602;2023-06-26T05:40:55;23.40;63.60
65231;DHT22;51813;40.666;16.602;2023-06-26T05:43:21;23.40;63.30
65231;DHT22;51813;40.666;16.602;2023-06-26T05:45:48;23.40;63.40
65231;DHT22;51813;40.666;16.602;2023-06-26T05:48:14;23.40;63.80
65231;DHT22;51813;40.666;16.602;2023-06-26T05:50:40;23.40;63.20
65231;DHT22;51813;40.666;16.602;2023-06-26T05:53:07;23.40;63.30
65231;DHT22;51813;40.666;16.602;2023-06-26T05:55:34;23.40;63.20
65231;DHT22;51813;40.666;16.602;2023-06-26T05:58:00;23.40;63.20
65231;DHT22;51813;40.666;16.602;2023-06-26T06:00:27;23.50;63.30
65231;DHT22;51813;40.666;16.602;2023-06-26T06:02:53;23.50;63.60
65231;DHT22;51813;40.666;16.602;2023-06-26T06:05:22;23.50;63.50
65231;DHT22;51813;40.666;16.602;2023-06-26T06:07:49;23.40;63.80
65231;DHT22;51813;40.666;16.602;2023-06-26T06:10:15;23.40;62.70
65231;DHT22;51813;40.666;16.602;2023-06-26T06:12:40;23.50;63.40
65231;DHT22;51813;40.666;16.602;2023-06-26T06:15:06;23.40;62.80
65231;DHT22;51813;40.666;16.602;2023-06-26T06:17:32;23.40;62.90
65231;DHT22;51813;40.666;16.602;2023-06-26T06:19:58;23.40;62.80
65231;DHT22;51813;40.666;16.602;2023-06-26T06:22:24;23.40;62.90
65231;DHT22;51813;40.666;16.602;2023-06-26T06:24:50;23.40;63.20
65231;DHT22;51813;40.666;16.602;2023-06-26T06:27:16;23.40;62.50
65231;DHT22;51813;40.666;16.602;2023-06-26T06:29:42;23.40;63.50
65231;DHT22;51813;40.666;16.602;2023-06-26T06:32:08;23.40;63.80
65231;DHT22;51813;40.666;16.602;2023-06-26T06:34:34;23.50;62.70
65231;DHT22;51813;40.666;16.602;2023-06-26T06:37:00;23.50;62.30
65231;DHT22;51813;40.666;16.602;2023-06-26T06:39:25;23.50;62.60
65231;DHT22;51813;40.666;16.602;2023-06-26T06:41:51;23.50;62.30
65231;DHT22;51813;40.666;16.602;2023-06-26T06:44:17;23.50;62.50
65231;DHT22;51813;40.666;16.602;2023-06-26T06:46:43;23.60;62.60
65231;DHT22;51813;40.666;16.602;2023-06-26T06:49:09;23.60;62.30
65231;DHT22;51813;40.666;16.602;2023-06-26T06:51:34;23.60;62.50
65231;DHT22;51813;40.666;16.602;2023-06-26T06:54:01;23.60;62.20
65231;DHT22;51813;40.666;16.602;2023-06-26T06:56:27;23.60;62.50
65231;DHT22;51813;40.666;16.602;2023-06-26T06:58:53;23.60;62.10
65231;DHT22;51813;40.666;16.602;2023-06-26T07:01:19;23.60;62.70
65231;DHT22;51813;40.666;16.602;2023-06-26T07:03:45;23.60;62.20
65231;DHT22;51813;40.666;16.602;2023-06-26T07:06:10;23.60;62.80
65231;DHT22;51813;40.666;16.602;2023-06-26T07:08:36;23.60;61.90
65231;DHT22;51813;40.666;16.602;2023-06-26T07:11:02;23.60;62.20
65231;DHT22;51813;40.666;16.602;2023-06-26T07:13:28;23.60;62.00
65231;DHT22;51813;40.666;16.602;2023-06-26T07:15:54;23.60;61.90
65231;DHT22;51813;40.666;16.602;2023-06-26T07:18:20;23.60;61.70
65231;DHT22;51813;40.666;16.602;2023-06-26T07:20:45;23.60;61.90
65231;DHT22;51813;40.666;16.602;2023-06-26T07:23:11;23.60;61.80
65231;DHT22;51813;40.666;16.602;2023-06-26T07:25:37;23.60;62.10
65231;DHT22;51813;40.666;16.602;2023-06-26T07:28:02;23.50;61.80
65231;DHT22;51813;40.666;16.602;2023-06-26T07:30:28;23.60;61.40
65231;DHT22;51813;40.666;16.602;2023-06-26T07:32:54;23.60;61.80
65231;DHT22;51813;40.666;16.602;2023-06-26T07:35:20;23.60;61.40
65231;DHT22;51813;40.666;16.602;2023-06-26T07:37:46;23.60;61.40
65231;DHT22;51813;40.666;16.602;2023-06-26T07:40:11;23.60;61.30
65231;DHT22;51813;40.666;16.602;2023-06-26T07:42:38;23.70;61.00
65231;DHT22;51813;40.666;16.602;2023-06-26T07:45:05;23.70;61.00
65231;DHT22;51813;40.666;16.602;2023-06-26T07:47:38;23.60;61.40
65231;DHT22;51813;40.666;16.602;2023-06-26T07:50:04;23.60;60.80
65231;DHT22;51813;40.666;16.602;2023-06-26T07:52:30;23.60;61.30
65231;DHT22;51813;40.666;16.602;2023-06-26T07:54:56;23.70;61.40
65231;DHT22;51813;40.666;16.602;2023-06-26T07:57:22;23.70;61.00
65231;DHT22;51813;40.666;16.602;2023-06-26T07:59:48;23.80;61.10
65231;DHT22;51813;40.666;16.602;2023-06-26T08:02:14;23.80;60.90
65231;DHT22;51813;40.666;16.602;2023-06-26T08:04:39;23.80;61.40
65231;DHT22;51813;40.666;16.602;2023-06-26T08:07:05;23.70;60.90
65231;DHT22;51813;40.666;16.602;2023-06-26T08:09:32;23.70;60.50
65231;DHT22;51813;40.666;16.602;2023-06-26T08:11:58;23.80;59.90
65231;DHT22;51813;40.666;16.602;2023-06-26T08:14:24;23.80;59.90
65231;DHT22;51813;40.666;16.602;2023-06-26T08:16:50;23.70;59.30
65231;DHT22;51813;40.666;16.602;2023-06-26T08:19:17;23.80;59.60
65231;DHT22;51813;40.666;16.602;2023-06-26T08:21:43;23.80;59.20
65231;DHT22;51813;40.666;16.602;2023-06-26T08:24:10;23.70;58.90
65231;DHT22;51813;40.666;16.602;2023-06-26T08:26:36;23.80;58.80
65231;DHT22;51813;40.666;16.602;2023-06-26T08:29:03;23.80;58.70
65231;DHT22;51813;40.666;16.602;2023-06-26T08:31:35;23.80;58.50
65231;DHT22;51813;40.666;16.602;2023-06-26T08:34:02;23.80;58.50
65231;DHT22;51813;40.666;16.602;2023-06-26T08:36:28;23.80;58.20
65231;DHT22;51813;40.666;16.602;2023-06-26T08:38:54;23.80;58.10
65231;DHT22;51813;40.666;16.602;2023-06-26T08:41:20;23.80;58.70
65231;DHT22;51813;40.666;16.602;2023-06-26T08:43:46;23.90;59.00
65231;DHT22;51813;40.666;16.602;2023-06-26T08:46:12;23.90;59.10
65231;DHT22;51813;40.666;16.602;2023-06-26T08:48:38;24.00;57.90
65231;DHT22;51813;40.666;16.602;2023-06-26T08:51:16;24.00;58.30
65231;DHT22;51813;40.666;16.602;2023-06-26T08:54:01;24.00;58.30
65231;DHT22;51813;40.666;16.602;2023-06-26T08:56:35;24.00;58.50
65231;DHT22;51813;40.666;16.602;2023-06-26T08:59:01;24.00;58.00
65231;DHT22;51813;40.666;16.602;2023-06-26T09:01:27;24.00;58.40
65231;DHT22;51813;40.666;16.602;2023-06-26T09:03:53;24.10;57.50
65231;DHT22;51813;40.666;16.602;2023-06-26T09:06:19;24.10;57.60
65231;DHT22;51813;40.666;16.602;2023-06-26T09:08:45;24.30;57.80
65231;DHT22;51813;40.666;16.602;2023-06-26T09:11:11;24.40;56.90
65231;DHT22;51813;40.666;16.602;2023-06-26T09:13:37;24.60;56.00
65231;DHT22;51813;40.666;16.602;2023-06-26T09:16:07;24.70;55.40
65231;DHT22;51813;40.666;16.602;2023-06-26T09:18:36;24.90;55.80
65231;DHT22;51813;40.666;16.602;2023-06-26T09:21:08;25.10;56.00
65231;DHT22;51813;40.666;16.602;2023-06-26T09:23:35;25.20;54.10
65231;DHT22;51813;40.666;16.602;2023-06-26T09:26:07;25.20;55.20
65231;DHT22;51813;40.666;16.602;2023-06-26T09:28:33;25.30;54.30
65231;DHT22;51813;40.666;16.602;2023-06-26T09:31:06;25.30;53.80
65231;DHT22;51813;40.666;16.602;2023-06-26T09:33:35;25.40;53.90
65231;DHT22;51813;40.666;16.602;2023-06-26T09:36:06;25.50;54.00
65231;DHT22;51813;40.666;16.602;2023-06-26T09:38:33;25.60;52.80
65231;DHT22;51813;40.666;16.602;2023-06-26T09:40:59;25.60;53.50
65231;DHT22;51813;40.666;16.602;2023-06-26T09:43:24;25.60;53.40
65231;DHT22;51813;40.666;16.602;2023-06-26T09:45:51;25.60;53.40
65231;DHT22;51813;40.666;16.602;2023-06-26T09:48:19;25.60;52.60
65231;DHT22;51813;40.666;16.602;2023-06-26T09:50:46;25.60;52.70
65231;DHT22;51813;40.666;16.602;2023-06-26T09:53:12;25.60;52.70
65231;DHT22;51813;40.666;16.602;2023-06-26T09:55:44;25.60;52.00
65231;DHT22;51813;40.666;16.602;2023-06-26T09:58:11;25.70;52.30
65231;DHT22;51813;40.666;16.602;2023-06-26T10:00:43;25.70;51.60
65231;DHT22;51813;40.666;16.602;2023-06-26T10:03:10;25.70;51.80
65231;DHT22;51813;40.666;16.602;2023-06-26T10:05:38;25.70;51.40
65231;DHT22;51813;40.666;16.602;2023-06-26T10:08:05;25.80;51.50
65231;DHT22;51813;40.666;16.602;2023-06-26T10:10:35;25.90;52.20
65231;DHT22;51813;40.666;16.602;2023-06-26T10:13:16;26.00;51.80
65231;DHT22;51813;40.666;16.602;2023-06-26T10:15:46;26.10;51.30
65231;DHT22;51813;40.666;16.602;2023-06-26T10:18:13;26.20;51.30
65231;DHT22;51813;40.666;16.602;2023-06-26T10:20:42;26.20;51.60
65231;DHT22;51813;40.666;16.602;2023-06-26T10:23:12;26.30;50.80
65231;DHT22;51813;40.666;16.602;2023-06-26T10:25:41;26.30;51.70
65231;DHT22;51813;40.666;16.602;2023-06-26T10:28:09;26.40;51.70
65231;DHT22;51813;40.666;16.602;2023-06-26T10:30:37;26.40;50.80
65231;DHT22;51813;40.666;16.602;2023-06-26T10:33:05;26.50;50.90
65231;DHT22;51813;40.666;16.602;2023-06-26T10:35:32;26.60;51.90
65231;DHT22;51813;40.666;16.602;2023-06-26T10:38:02;26.60;50.60
65231;DHT22;51813;40.666;16.602;2023-06-26T10:40:47;26.60;50.30
65231;DHT22;51813;40.666;16.602;2023-06-26T10:43:15;26.50;50.40
65231;DHT22;51813;40.666;16.602;2023-06-26T10:45:45;26.60;51.10
65231;DHT22;51813;40.666;16.602;2023-06-26T10:48:14;26.60;51.20
65231;DHT22;51813;40.666;16.602;2023-06-26T10:50:40;26.50;50.80
65231;DHT22;51813;40.666;16.602;2023-06-26T10:55:54;26.50;50.50
65231;DHT22;51813;40.666;16.602;2023-06-26T11:03:41;26.50;51.60
65231;DHT22;51813;40.666;16.602;2023-06-26T11:06:14;26.50;51.80
65231;DHT22;51813;40.666;16.602;2023-06-26T11:11:15;26.30;51.10
65231;DHT22;51813;40.666;16.602;2023-06-26T11:13:42;26.40;51.00
65231;DHT22;51813;40.666;16.602;2023-06-26T11:16:08;26.30;50.60
65231;DHT22;51813;40.666;16.602;2023-06-26T11:18:34;26.30;51.30
65231;DHT22;51813;40.666;16.602;2023-06-26T11:21:06;26.20;51.70
65231;DHT22;51813;40.666;16.602;2023-06-26T11:23:34;26.20;51.30
65231;DHT22;51813;40.666;16.602;2023-06-26T11:26:17;26.30;51.80
65231;DHT22;51813;40.666;16.602;2023-06-26T11:28:51;26.30;51.10
65231;DHT22;51813;40.666;16.602;2023-06-26T11:31:25;26.30;51.30
65231;DHT22;51813;40.666;16.602;2023-06-26T11:33:52;26.20;51.70
65231;DHT22;51813;40.666;16.602;2023-06-26T11:36:18;26.20;51.50
65231;DHT22;51813;40.666;16.602;2023-06-26T11:38:44;26.30;52.00
65231;DHT22;51813;40.666;16.602;2023-06-26T11:41:09;26.20;51.10
65231;DHT22;51813;40.666;16.602;2023-06-26T11:43:35;26.20;51.70
65231;DHT22;51813;40.666;16.602;2023-06-26T11:46:01;26.20;51.40
65231;DHT22;51813;40.666;16.602;2023-06-26T11:48:27;26.30;51.90
65231;DHT22;51813;40.666;16.602;2023-06-26T11:50:54;26.20;52.00
65231;DHT22;51813;40.666;16.602;2023-06-26T11:53:20;26.10;52.60
65231;DHT22;51813;40.666;16.602;2023-06-26T11:55:45;26.10;52.90
65231;DHT22;51813;40.666;16.602;2023-06-26T11:58:11;26.00;53.10
65231;DHT22;51813;40.666;16.602;2023-06-26T12:00:41;25.90;53.30
65231;DHT22;51813;40.666;16.602;2023-06-26T12:03:08;25.90;53.60
65231;DHT22;51813;40.666;16.602;2023-06-26T12:05:34;25.90;53.60
65231;DHT22;51813;40.666;16.602;2023-06-26T12:08:00;25.80;53.50
65231;DHT22;51813;40.666;16.602;2023-06-26T12:10:27;25.80;53.60
65231;DHT22;51813;40.666;16.602;2023-06-26T12:12:53;25.90;53.40
65231;DHT22;51813;40.666;16.602;2023-06-26T12:15:19;26.00;53.70
65231;DHT22;51813;40.666;16.602;2023-06-26T12:17:45;26.10;52.90
65231;DHT22;51813;40.666;16.602;2023-06-26T12:20:21;26.00;52.40
65231;DHT22;51813;40.666;16.602;2023-06-26T12:22:47;26.10;52.00
65231;DHT22;51813;40.666;16.602;2023-06-26T12:25:22;26.20;52.30
65231;DHT22;51813;40.666;16.602;2023-06-26T12:27:48;26.30;52.50
65231;DHT22;51813;40.666;16.602;2023-06-26T12:30:15;26.30;51.90
65231;DHT22;51813;40.666;16.602;2023-06-26T12:32:44;26.50;51.40
65231;DHT22;51813;40.666;16.602;2023-06-26T12:35:11;26.50;51.80
65231;DHT22;51813;40.666;16.602;2023-06-26T12:37:37;26.70;51.30
65231;DHT22;51813;40.666;16.602;2023-06-26T12:40:17;26.80;50.50
65231;DHT22;51813;40.666;16.602;2023-06-26T12:42:45;26.70;50.00
65231;DHT22;51813;40.666;16.602;2023-06-26T12:45:12;26.60;50.10
65231;DHT22;51813;40.666;16.602;2023-06-26T12:47:38;26.70;50.50
65231;DHT22;51813;40.666;16.602;2023-06-26T12:50:07;26.70;51.00
65231;DHT22;51813;40.666;16.602;2023-06-26T12:52:32;26.80;51.10
65231;DHT22;51813;40.666;16.602;2023-06-26T12:54:58;26.80;50.90
65231;DHT22;51813;40.666;16.602;2023-06-26T12:57:24;26.80;49.90
65231;DHT22;51813;40.666;16.602;2023-06-26T12:59:51;26.90;50.20
65231;DHT22;51813;40.666;16.602;2023-06-26T13:02:17;27.00;50.50
65231;DHT22;51813;40.666;16.602;2023-06-26T13:04:43;27.00;50.70
65231;DHT22;51813;40.666;16.602;2023-06-26T13:07:12;27.00;50.40
65231;DHT22;51813;40.666;16.602;2023-06-26T13:09:38;27.00;50.50
65231;DHT22;51813;40.666;16.602;2023-06-26T13:12:05;27.00;50.30
65231;DHT22;51813;40.666;16.602;2023-06-26T13:14:32;27.00;49.40
65231;DHT22;51813;40.666;16.602;2023-06-26T13:16:58;27.00;49.80
65231;DHT22;51813;40.666;16.602;2023-06-26T13:19:24;27.00;50.00
65231;DHT22;51813;40.666;16.602;2023-06-26T13:21:49;27.10;50.30
65231;DHT22;51813;40.666;16.602;2023-06-26T13:24:15;27.10;50.00
65231;DHT22;51813;40.666;16.602;2023-06-26T13:26:41;27.20;49.60
65231;DHT22;51813;40.666;16.602;2023-06-26T13:29:07;27.30;50.10
65231;DHT22;51813;40.666;16.602;2023-06-26T13:31:33;27.10;49.70
65231;DHT22;51813;40.666;16.602;2023-06-26T13:33:59;27.20;49.90
65231;DHT22;51813;40.666;16.602;2023-06-26T13:36:25;27.30;50.30
65231;DHT22;51813;40.666;16.602;2023-06-26T13:38:51;27.30;50.10
65231;DHT22;51813;40.666;16.602;2023-06-26T13:41:24;27.40;49.90
65231;DHT22;51813;40.666;16.602;2023-06-26T13:43:50;27.40;50.20
65231;DHT22;51813;40.666;16.602;2023-06-26T13:46:16;27.40;49.60
65231;DHT22;51813;40.666;16.602;2023-06-26T13:48:43;27.40;49.40
65231;DHT22;51813;40.666;16.602;2023-06-26T13:51:09;27.40;49.60
65231;DHT22;51813;40.666;16.602;2023-06-26T13:53:35;27.40;49.30
65231;DHT22;51813;40.666;16.602;2023-06-26T13:56:00;27.40;49.80
65231;DHT22;51813;40.666;16.602;2023-06-26T13:58:27;27.50;49.10
65231;DHT22;51813;40.666;16.602;2023-06-26T14:00:55;27.50;49.30
65231;DHT22;51813;40.666;16.602;2023-06-26T14:03:21;27.50;50.00
65231;DHT22;51813;40.666;16.602;2023-06-26T14:05:46;27.40;49.80
65231;DHT22;51813;40.666;16.602;2023-06-26T14:08:13;27.60;49.00
65231;DHT22;51813;40.666;16.602;2023-06-26T14:10:39;27.70;48.20
65231;DHT22;51813;40.666;16.602;2023-06-26T14:13:04;27.70;48.80
65231;DHT22;51813;40.666;16.602;2023-06-26T14:15:30;27.70;47.90
65231;DHT22;51813;40.666;16.602;2023-06-26T14:17:56;27.70;48.20
65231;DHT22;51813;40.666;16.602;2023-06-26T14:20:22;27.70;48.80
65231;DHT22;51813;40.666;16.602;2023-06-26T14:22:48;27.70;48.80
65231;DHT22;51813;40.666;16.602;2023-06-26T14:25:14;27.60;48.40
65231;DHT22;51813;40.666;16.602;2023-06-26T14:27:40;27.50;48.70
65231;DHT22;51813;40.666;16.602;2023-06-26T14:30:07;27.50;48.60
65231;DHT22;51813;40.666;16.602;2023-06-26T14:32:33;27.40;49.30
65231;DHT22;51813;40.666;16.602;2023-06-26T14:34:59;27.40;49.00
65231;DHT22;51813;40.666;16.602;2023-06-26T14:37:26;27.40;49.50
65231;DHT22;51813;40.666;16.602;2023-06-26T14:39:52;27.40;50.50
65231;DHT22;51813;40.666;16.602;2023-06-26T14:42:18;27.30;49.80
65231;DHT22;51813;40.666;16.602;2023-06-26T14:44:44;27.30;50.20
65231;DHT22;51813;40.666;16.602;2023-06-26T14:47:12;27.30;50.30
65231;DHT22;51813;40.666;16.602;2023-06-26T14:49:39;27.30;49.80
65231;DHT22;51813;40.666;16.602;2023-06-26T14:52:05;27.30;50.00
65231;DHT22;51813;40.666;16.602;2023-06-26T14:54:30;27.40;49.90
65231;DHT22;51813;40.666;16.602;2023-06-26T14:56:58;27.50;49.50
65231;DHT22;51813;40.666;16.602;2023-06-26T14:59:24;27.50;49.20
65231;DHT22;51813;40.666;16.602;2023-06-26T15:01:49;27.60;49.30
65231;DHT22;51813;40.666;16.602;2023-06-26T15:04:15;27.60;49.80
65231;DHT22;51813;40.666;16.602;2023-06-26T15:06:41;27.50;49.70
65231;DHT22;51813;40.666;16.602;2023-06-26T15:09:06;27.50;49.80
65231;DHT22;51813;40.666;16.602;2023-06-26T15:11:32;27.60;49.50
65231;DHT22;51813;40.666;16.602;2023-06-26T15:13:58;27.60;49.40
65231;DHT22;51813;40.666;16.602;2023-06-26T15:16:23;27.70;49.30
65231;DHT22;51813;40.666;16.602;2023-06-26T15:18:50;27.70;49.00
65231;DHT22;51813;40.666;16.602;2023-06-26T15:21:16;27.80;48.40
65231;DHT22;51813;40.666;16.602;2023-06-26T15:23:41;27.80;48.50
65231;DHT22;51813;40.666;16.602;2023-06-26T15:26:07;27.80;47.50
65231;DHT22;51813;40.666;16.602;2023-06-26T15:28:33;27.80;47.80